Time;durP1;ratioP1;P1;durP2;ratioP2;P2;SDS_P1;SDS_P2;PMS_P1;PMS_P2;Temp;Humidity;BMP_temperature;BMP_pressure;BME280_temperature;BME280_humidity;BME280_pressure;Samples;Min_cycle;Max_cycle;Signal;HPM_P1;HPM_P2
2021/11/29 00:02:23;;;;;;;36.55;21.25;;;;;;;4.75;64.18;98240.47;5154765;27;20045;-65
2021/11/29 00:04:49;;;;;;;43.72;28.50;;;;;;;4.76;64.23;98236.81;5155905;27;20413;-65
2021/11/29 00:07:15;;;;;;;48.00;28.27;;;;;;;4.69;64.26;98223.78;5155683;27;20039;-65
2021/11/29 00:09:41;;;;;;;48.03;31.95;;;;;;;4.72;64.42;98230.41;5155813;27;20060;-64
2021/11/29 00:12:07;;;;;;;60.67;38.78;;;;;;;4.70;64.64;98222.75;5155539;27;20472;-66
2021/11/29 00:14:33;;;;;;;77.75;51.67;;;;;;;4.66;65.08;98219.00;5155698;27;20515;-65
2021/11/29 00:16:59;;;;;;;51.08;30.75;;;;;;;4.60;65.22;98219.13;5155569;27;20043;-65
2021/11/29 00:19:25;;;;;;;58.65;36.33;;;;;;;4.61;64.63;98220.72;5154400;27;20096;-65
2021/11/29 00:21:51;;;;;;;44.20;28.08;;;;;;;4.59;65.37;98220.94;5155379;27;20045;-65
2021/11/29 00:24:16;;;;;;;51.60;28.83;;;;;;;4.61;65.52;98205.75;5155569;27;20042;-64
2021/11/29 00:26:42;;;;;;;37.90;20.35;;;;;;;4.51;65.42;98203.69;5155386;27;20042;-65
2021/11/29 00:29:08;;;;;;;50.80;32.50;;;;;;;4.46;65.73;98203.56;5136495;27;20496;-66
2021/11/29 00:31:34;;;;;;;50.53;31.38;;;;;;;4.44;65.72;98208.28;5155073;27;20420;-65
2021/11/29 00:34:00;;;;;;;55.15;32.58;;;;;;;4.43;66.04;98192.75;5155225;27;20050;-65
2021/11/29 00:36:26;;;;;;;82.57;48.17;;;;;;;4.49;65.83;98186.56;5155102;27;20038;-65
2021/11/29 00:38:52;;;;;;;67.75;39.08;;;;;;;4.47;65.40;98181.56;5155350;27;20038;-64
2021/11/29 00:41:18;;;;;;;44.72;23.60;;;;;;;4.47;65.99;98184.19;5153554;27;20105;-65
2021/11/29 00:43:44;;;;;;;29.13;16.20;;;;;;;4.50;65.90;98182.91;5154986;27;20043;-64
2021/11/29 00:46:10;;;;;;;33.33;16.05;;;;;;;4.47;65.34;98178.94;5155110;27;20066;-65
2021/11/29 00:48:36;;;;;;;28.98;15.57;;;;;;;4.48;65.18;98171.88;5155135;27;20065;-64
2021/11/29 00:51:02;;;;;;;30.30;16.23;;;;;;;4.44;65.39;98175.97;5155010;27;20038;-64
2021/11/29 00:53:28;;;;;;;30.55;17.15;;;;;;;4.36;66.12;98168.44;5153842;27;20034;-65
2021/11/29 00:55:54;;;;;;;31.75;16.13;;;;;;;4.31;66.01;98169.09;5154853;27;20389;-64
2021/11/29 00:58:20;;;;;;;33.67;17.27;;;;;;;4.27;66.12;98162.72;5154735;27;20042;-65
2021/11/29 01:00:45;;;;;;;31.25;16.10;;;;;;;4.26;66.53;98164.53;5154458;27;20046;-64
2021/11/29 01:03:11;;;;;;;33.05;16.92;;;;;;;4.26;66.18;98161.91;5155171;27;20091;-66
2021/11/29 01:05:37;;;;;;;33.85;15.20;;;;;;;4.31;66.57;98167.28;5153428;27;20039;-65
2021/11/29 01:08:04;;;;;;;27.60;14.75;;;;;;;4.31;66.54;98167.28;5154669;27;20049;-64
2021/11/29 01:10:30;;;;;;;27.10;14.00;;;;;;;4.33;66.59;98165.25;5154836;27;20437;-65
2021/11/29 01:12:56;;;;;;;26.58;14.07;;;;;;;4.32;66.67;98166.28;5152839;27;20046;-65
2021/11/29 01:15:26;;;;;;;28.30;14.88;;;;;;;4.33;66.47;98157.38;5154532;27;20051;-64
2021/11/29 01:17:51;;;;;;;28.15;14.80;;;;;;;4.32;66.41;98166.28;5152814;27;20039;-65
2021/11/29 01:20:17;;;;;;;27.10;13.93;;;;;;;4.33;66.21;98164.44;5154011;27;20046;-65
2021/11/29 01:22:44;;;;;;;32.40;15.23;;;;;;;4.34;66.10;98152.91;5154166;27;20043;-64
2021/11/29 01:25:11;;;;;;;29.63;16.48;;;;;;;4.33;66.54;98151.31;5154361;27;20523;-64
2021/11/29 01:27:37;;;;;;;27.98;15.02;;;;;;;4.36;65.91;98143.00;5154025;27;20047;-66
2021/11/29 01:30:05;;;;;;;30.73;15.40;;;;;;;4.30;65.97;98142.09;5152385;27;20051;-65
2021/11/29 01:32:31;;;;;;;27.42;14.45;;;;;;;4.22;66.38;98136.38;5153749;27;20030;-66
2021/11/29 01:34:57;;;;;;;34.10;16.08;;;;;;;4.23;66.87;98143.19;5153853;27;20067;-64
2021/11/29 01:37:23;;;;;;;28.27;15.38;;;;;;;4.27;65.92;98147.00;5152655;27;20039;-65
2021/11/29 01:39:49;;;;;;;31.02;16.15;;;;;;;4.24;66.67;98126.47;5152821;27;20043;-64
2021/11/29 01:42:15;;;;;;;34.80;15.65;;;;;;;4.25;66.28;98117.56;5152569;27;20388;-64
2021/11/29 01:44:41;;;;;;;28.67;13.80;;;;;;;4.11;66.70;98111.72;5154089;27;20038;-64
2021/11/29 01:47:07;;;;;;;30.45;15.60;;;;;;;4.13;67.21;98112.31;5135316;27;20503;-65
2021/11/29 01:49:33;;;;;;;30.35;14.70;;;;;;;4.19;66.67;98108.78;5135446;27;20038;-65
2021/11/29 01:51:59;;;;;;;27.35;14.52;;;;;;;4.14;66.79;98107.84;5152770;27;20042;-66
2021/11/29 01:54:25;;;;;;;28.20;13.90;;;;;;;4.17;67.63;98107.41;5153941;27;20039;-66
2021/11/29 01:56:52;;;;;;;29.00;15.48;;;;;;;4.19;66.86;98106.16;5153590;27;20130;-65
2021/11/29 01:59:18;;;;;;;26.67;14.68;;;;;;;4.26;67.34;98096.31;5153750;27;20079;-64
2021/11/29 02:01:44;;;;;;;28.60;15.05;;;;;;;4.35;67.12;98109.09;5152153;27;20087;-66
2021/11/29 02:04:12;;;;;;;27.60;14.85;;;;;;;4.42;67.35;98109.81;5153709;27;20051;-65
2021/11/29 02:06:39;;;;;;;32.15;16.05;;;;;;;4.43;67.05;98108.78;5153091;27;20039;-65
2021/11/29 02:09:06;;;;;;;29.90;15.32;;;;;;;4.44;66.71;98102.50;5153471;27;20039;-64
2021/11/29 02:11:33;;;;;;;29.48;14.27;;;;;;;4.34;67.22;98105.69;5152399;27;20563;-64
2021/11/29 02:14:18;;;;;;;27.45;13.73;;;;;;;4.26;66.94;98101.56;5153536;27;20051;-64
2021/11/29 02:16:44;;;;;;;25.10;14.20;;;;;;;4.19;67.60;98102.72;5153282;27;20049;-65
2021/11/29 02:19:10;;;;;;;26.15;14.45;;;;;;;4.20;67.01;98094.63;5153205;27;20045;-66
2021/11/29 02:21:36;;;;;;;26.23;14.63;;;;;;;4.22;67.41;98097.03;5153041;27;20039;-65
2021/11/29 02:24:04;;;;;;;27.80;14.73;;;;;;;4.30;67.57;98099.31;5134658;27;20087;-66
2021/11/29 02:26:33;;;;;;;28.48;15.15;;;;;;;4.26;67.54;98095.53;5153105;27;20449;-65
2021/11/29 02:29:05;;;;;;;29.67;15.60;;;;;;;4.32;67.65;98074.44;5151708;27;20069;-65
2021/11/29 02:31:39;;;;;;;32.13;16.73;;;;;;;4.33;67.89;98080.50;5153143;27;20130;-64
2021/11/29 02:34:14;;;;;;;34.08;15.73;;;;;;;4.38;68.32;98077.97;5153424;27;20047;-64
2021/11/29 02:36:40;;;;;;;31.73;16.05;;;;;;;4.33;69.49;98064.75;5153418;27;20042;-65
2021/11/29 02:39:07;;;;;;;33.38;17.13;;;;;;;4.27;68.72;98055.19;5153434;27;20415;-65
2021/11/29 02:41:34;;;;;;;35.72;17.15;;;;;;;4.30;68.93;98060.75;5152450;27;20049;-65
2021/11/29 02:44:00;;;;;;;32.70;16.35;;;;;;;4.29;69.24;98066.22;5153994;27;20043;-65
2021/11/29 02:46:26;;;;;;;33.40;16.30;;;;;;;4.32;69.44;98061.34;5154020;27;20076;-65
2021/11/29 02:48:52;;;;;;;36.60;17.65;;;;;;;4.26;69.72;98056.97;5153660;27;20404;-65
2021/11/29 02:51:30;;;;;;;32.90;17.02;;;;;;;4.26;70.00;98048.31;5152988;27;20035;-66
2021/11/29 02:54:08;;;;;;;36.13;18.77;;;;;;;4.22;70.55;98034.06;5151699;27;20523;-65
2021/11/29 02:56:37;;;;;;;35.63;18.17;;;;;;;4.18;70.62;98030.31;5134426;27;20107;-66
2021/11/29 02:59:04;;;;;;;35.75;17.38;;;;;;;4.20;70.61;98039.53;5152913;27;20449;-66
2021/11/29 03:01:30;;;;;;;38.95;17.77;;;;;;;4.17;71.08;98036.56;5151809;27;20038;-66
2021/11/29 03:03:56;;;;;;;37.83;17.45;;;;;;;4.21;70.75;98049.03;5152783;27;20454;-65
2021/11/29 03:06:22;;;;;;;32.30;16.90;;;;;;;4.27;71.01;98055.97;5151722;27;20088;-66
2021/11/29 03:08:48;;;;;;;37.10;18.38;;;;;;;4.28;71.75;98056.75;5151625;27;20039;-65
2021/11/29 03:11:15;;;;;;;44.90;20.25;;;;;;;4.29;72.03;98061.78;5152925;27;20042;-67
2021/11/29 03:13:41;;;;;;;39.40;20.10;;;;;;;4.21;73.16;98054.25;5152807;27;20262;-66
2021/11/29 03:16:07;;;;;;;41.72;19.58;;;;;;;4.20;72.88;98057.91;5152515;27;20496;-65
2021/11/29 03:18:38;;;;;;;43.97;20.88;;;;;;;4.14;73.31;98063.25;5151510;27;20077;-66
2021/11/29 03:21:06;;;;;;;50.17;20.10;;;;;;;4.22;74.18;98057.69;5156710;27;20039;-65
2021/11/29 03:23:32;;;;;;;44.92;22.00;;;;;;;4.25;73.85;98057.22;5155170;27;20049;-65
2021/11/29 03:25:59;;;;;;;45.55;20.90;;;;;;;4.25;74.23;98050.16;5155247;27;20039;-64
2021/11/29 03:28:26;;;;;;;49.38;21.50;;;;;;;4.15;74.08;98054.34;5156498;27;20049;-67
2021/11/29 03:30:52;;;;;;;46.20;20.00;;;;;;;4.15;73.88;98049.13;5155138;27;20516;-65
2021/11/29 03:33:18;;;;;;;41.35;20.65;;;;;;;4.22;74.74;98061.09;5156298;27;20066;-65
2021/11/29 03:35:44;;;;;;;46.33;20.35;;;;;;;4.24;74.85;98066.91;5156064;27;20082;-65
2021/11/29 03:38:10;;;;;;;44.63;21.33;;;;;;;4.21;74.72;98062.13;5156251;27;20043;-65
2021/11/29 03:40:37;;;;;;;46.10;21.13;;;;;;;4.19;75.27;98056.31;5156016;27;20579;-66
2021/11/29 03:43:04;;;;;;;57.22;23.63;;;;;;;4.21;74.87;98050.84;5156310;27;20126;-66
2021/11/29 03:45:31;;;;;;;53.78;22.55;;;;;;;4.23;74.78;98048.78;5156520;27;20067;-65
2021/11/29 03:47:57;;;;;;;57.25;23.25;;;;;;;4.22;75.25;98041.94;5156337;27;20065;-65
2021/11/29 03:50:23;;;;;;;51.25;22.10;;;;;;;4.21;75.62;98035.13;5156355;27;20395;-65
2021/11/29 03:52:49;;;;;;;52.03;23.70;;;;;;;4.14;76.38;98027.34;5154808;27;20054;-66
2021/11/29 03:55:14;;;;;;;54.83;22.20;;;;;;;4.07;76.24;98024.84;5156262;27;20039;-65
2021/11/29 03:57:40;;;;;;;52.53;22.60;;;;;;;4.04;77.05;98030.53;5154536;27;20030;-65
2021/11/29 04:00:07;;;;;;;50.15;22.67;;;;;;;4.04;76.92;98022.69;5156045;27;20055;-65
2021/11/29 04:02:39;;;;;;;49.42;20.65;;;;;;;4.00;76.99;98024.16;5156070;27;20031;-66
2021/11/29 04:05:05;;;;;;;54.28;21.83;;;;;;;3.93;77.82;98025.28;5137229;27;20066;-64
2021/11/29 04:07:31;;;;;;;54.53;22.58;;;;;;;3.85;78.16;98019.38;5154693;27;20039;-64
2021/11/29 04:09:57;;;;;;;45.55;21.70;;;;;;;3.87;78.17;98027.78;5155918;27;20054;-65
2021/11/29 04:12:23;;;;;;;53.50;23.17;;;;;;;3.87;78.39;98021.75;5156034;27;20459;-66
2021/11/29 04:14:49;;;;;;;50.33;22.52;;;;;;;3.89;78.25;98021.53;5156005;27;20039;-65
2021/11/29 04:17:15;;;;;;;56.45;23.73;;;;;;;3.91;78.33;98029.97;5155742;27;20057;-65
2021/11/29 04:19:44;;;;;;;52.45;24.35;;;;;;;3.91;77.95;98015.03;5155618;27;20039;-65
2021/11/29 04:22:10;;;;;;;52.45;25.52;;;;;;;3.82;78.63;98000.66;5155365;27;20491;-65
2021/11/29 04:24:39;;;;;;;52.95;23.10;;;;;;;3.78;79.13;98013.44;5155711;27;20126;-64
2021/11/29 04:27:06;;;;;;;49.28;22.10;;;;;;;3.82;79.55;98001.50;5154061;27;20062;-65
2021/11/29 04:29:35;;;;;;;52.85;22.98;;;;;;;3.85;79.58;97998.41;5154863;27;20107;-66
2021/11/29 04:32:02;;;;;;;50.13;22.13;;;;;;;3.76;79.56;97999.75;5155628;27;20411;-64
2021/11/29 04:34:28;;;;;;;57.17;23.90;;;;;;;3.82;79.51;97996.25;5155099;27;20043;-64
2021/11/29 04:36:53;;;;;;;46.75;21.02;;;;;;;3.86;79.70;97992.13;5155097;27;20109;-66
2021/11/29 04:39:22;;;;;;;48.58;22.00;;;;;;;3.85;79.21;97995.78;5155007;27;20084;-66
2021/11/29 04:41:47;;;;;;;51.70;21.83;;;;;;;3.89;79.47;97998.75;5136068;27;20564;-66
2021/11/29 04:44:13;;;;;;;52.17;21.15;;;;;;;3.95;79.68;98004.91;5118964;27;20042;-67
2021/11/29 04:46:39;;;;;;;48.35;21.73;;;;;;;4.00;79.52;98008.44;5155134;27;20415;-66
2021/11/29 04:49:05;;;;;;;51.53;21.52;;;;;;;4.04;78.57;98000.91;5154976;27;20087;-65
2021/11/29 04:51:31;;;;;;;49.40;21.48;;;;;;;4.09;78.86;98003.66;5155217;27;20443;-66
2021/11/29 04:53:57;;;;;;;50.78;20.85;;;;;;;4.09;78.85;97999.19;5155320;27;20038;-66
2021/11/29 04:56:23;;;;;;;46.10;22.33;;;;;;;4.12;79.03;98000.56;5155960;27;20030;-67
2021/11/29 04:58:49;;;;;;;46.28;20.42;;;;;;;4.19;78.34;97993.38;5154244;27;20126;-66
2021/11/29 05:01:15;;;;;;;48.35;21.30;;;;;;;4.20;78.39;97986.28;5155429;27;20050;-65
2021/11/29 05:03:40;;;;;;;52.13;21.70;;;;;;;4.19;78.58;97996.00;5154271;27;20038;-66
2021/11/29 05:06:07;;;;;;;46.58;21.25;;;;;;;4.15;79.22;97992.25;5154504;27;20508;-65
2021/11/29 05:08:33;;;;;;;53.15;22.17;;;;;;;4.17;79.28;97984.13;5154235;27;20041;-68
2021/11/29 05:11:00;;;;;;;45.97;20.67;;;;;;;4.19;78.98;97982.06;5154110;27;20051;-61
2021/11/29 05:13:26;;;;;;;44.25;19.75;;;;;;;4.17;78.58;97969.19;5154437;27;20047;-61
2021/11/29 05:15:51;;;;;;;50.20;22.42;;;;;;;4.15;79.00;97966.00;5152725;27;20058;-61
2021/11/29 05:18:17;;;;;;;44.25;20.88;;;;;;;4.20;79.90;97965.31;5154071;27;20491;-63
2021/11/29 05:20:44;;;;;;;50.13;22.35;;;;;;;4.26;79.59;97959.13;5154275;27;20092;-61
2021/11/29 05:23:10;;;;;;;44.40;20.80;;;;;;;4.26;78.72;97962.56;5153946;27;20035;-62
2021/11/29 05:25:37;;;;;;;45.15;20.88;;;;;;;4.28;79.81;97971.00;5154257;27;20042;-61
2021/11/29 05:28:04;;;;;;;45.38;20.25;;;;;;;4.27;79.60;97971.25;5153865;27;20127;-61
2021/11/29 05:30:30;;;;;;;47.58;21.65;;;;;;;4.21;79.71;97961.69;5153766;27;20064;-61
2021/11/29 05:32:56;;;;;;;48.17;21.23;;;;;;;4.18;80.12;97968.16;5153974;27;20492;-60
2021/11/29 05:35:22;;;;;;;46.78;21.13;;;;;;;4.20;79.98;97963.47;5153960;27;20042;-61
2021/11/29 05:37:48;;;;;;;50.60;20.80;;;;;;;4.19;80.57;97969.75;5153724;27;20045;-62
2021/11/29 05:40:14;;;;;;;49.45;20.95;;;;;;;4.24;80.19;97967.25;5153716;27;20137;-60
2021/11/29 05:42:40;;;;;;;46.03;19.92;;;;;;;4.33;80.28;97968.47;5153152;27;20071;-61
2021/11/29 05:45:08;;;;;;;47.63;20.48;;;;;;;4.37;79.76;97973.25;5153895;27;20095;-59
2021/11/29 05:47:34;;;;;;;46.30;21.65;;;;;;;4.41;79.43;97963.88;5153637;27;20033;-67
2021/11/29 05:50:01;;;;;;;54.58;21.77;;;;;;;4.38;79.65;97966.97;5152149;27;20093;-63
2021/11/29 05:52:29;;;;;;;51.78;22.67;;;;;;;4.42;79.98;97961.06;5153742;27;20129;-63
2021/11/29 05:54:54;;;;;;;45.92;22.17;;;;;;;4.46;79.58;97954.28;5153202;27;20130;-62
2021/11/29 05:57:20;;;;;;;46.55;22.00;;;;;;;4.46;80.27;97950.88;5153136;27;20075;-62
2021/11/29 05:59:47;;;;;;;46.40;22.35;;;;;;;4.46;80.43;97943.00;5151958;27;20134;-63
2021/11/29 06:02:13;;;;;;;50.85;22.13;;;;;;;4.49;79.84;97939.91;5153334;27;20043;-63
2021/11/29 06:04:39;;;;;;;48.67;21.98;;;;;;;4.50;79.74;97946.75;5152063;27;20408;-63
2021/11/29 06:07:04;;;;;;;50.40;23.10;;;;;;;4.48;80.50;97933.88;5153398;27;20513;-64
2021/11/29 06:09:30;;;;;;;48.17;22.02;;;;;;;4.45;80.50;97929.09;5152784;27;20099;-62
2021/11/29 06:11:57;;;;;;;51.55;23.08;;;;;;;4.46;80.86;97924.63;5151930;27;20077;-64
2021/11/29 06:14:25;;;;;;;53.40;23.55;;;;;;;4.46;80.78;97928.06;5153294;27;20051;-62
2021/11/29 06:16:52;;;;;;;49.38;21.88;;;;;;;4.50;80.62;97928.38;5153003;27;20066;-62
2021/11/29 06:19:18;;;;;;;55.38;23.40;;;;;;;4.53;80.26;97915.63;5151724;27;20077;-61
2021/11/29 06:21:44;;;;;;;47.80;23.00;;;;;;;4.56;79.97;97919.59;5153014;27;20567;-62
2021/11/29 06:24:10;;;;;;;50.80;22.38;;;;;;;4.60;80.17;97912.84;5151709;27;20122;-63
2021/11/29 06:26:36;;;;;;;46.83;21.63;;;;;;;4.62;80.52;97912.59;5152611;27;20031;-63
2021/11/29 06:29:02;;;;;;;49.63;22.45;;;;;;;4.64;80.03;97910.53;5152514;27;20042;-61
2021/11/29 06:31:28;;;;;;;52.42;24.50;;;;;;;4.63;80.79;97912.38;5152953;27;20034;-62
2021/11/29 06:33:54;;;;;;;54.25;24.10;;;;;;;4.66;79.91;97917.16;5151725;27;20066;-61
2021/11/29 06:36:20;;;;;;;48.80;21.25;;;;;;;4.70;80.47;97901.72;5147263;27;20047;-73
2021/11/29 06:38:47;;;;;;;51.85;22.48;;;;;;;4.80;79.49;97904.53;5130204;27;20035;-62
2021/11/29 06:41:13;;;;;;;52.83;23.42;;;;;;;4.85;79.47;97896.72;5147659;27;20038;-62
2021/11/29 06:43:39;;;;;;;51.10;22.20;;;;;;;4.89;79.71;97899.69;5146475;27;20039;-64
2021/11/29 06:46:05;;;;;;;53.88;24.13;;;;;;;4.90;79.11;97902.06;5149825;27;20440;-62
2021/11/29 06:48:31;;;;;;;59.13;27.88;;;;;;;4.93;79.82;97898.19;5146954;27;20035;-63
2021/11/29 06:50:57;;;;;;;69.00;30.55;;;;;;;5.01;78.80;97903.06;5146171;27;20518;-63
2021/11/29 06:53:24;;;;;;;62.13;27.35;;;;;;;5.08;78.83;97895.81;5152762;27;20046;-61
2021/11/29 06:55:51;;;;;;;55.00;23.13;;;;;;;5.17;78.66;97904.09;5154304;27;20049;-63
2021/11/29 06:58:17;;;;;;;52.38;22.65;;;;;;;5.15;78.96;97901.72;5153177;27;20054;-62
2021/11/29 07:00:43;;;;;;;59.15;23.50;;;;;;;5.14;78.65;97904.56;5133699;27;20051;-62
2021/11/29 07:03:09;;;;;;;51.20;22.50;;;;;;;5.14;78.84;97899.31;5151584;27;20392;-62
2021/11/29 07:05:35;;;;;;;53.40;22.42;;;;;;;5.14;79.30;97899.31;5153666;27;20058;-62
2021/11/29 07:08:01;;;;;;;52.88;24.30;;;;;;;5.13;78.73;97898.53;5154345;27;20182;-64
2021/11/29 07:10:28;;;;;;;53.35;23.77;;;;;;;5.16;78.95;97889.38;5155069;27;20061;-63
2021/11/29 07:12:55;;;;;;;61.85;24.08;;;;;;;5.16;78.85;97892.78;5153294;27;20440;-62
2021/11/29 07:15:23;;;;;;;57.42;23.52;;;;;;;5.16;78.96;97889.38;5151447;27;20141;-62
2021/11/29 07:17:50;;;;;;;55.85;24.45;;;;;;;5.18;79.11;97885.47;5155623;27;20042;-63
2021/11/29 07:20:17;;;;;;;56.45;23.70;;;;;;;5.12;78.64;97872.50;5152071;27;20413;-61
2021/11/29 07:22:44;;;;;;;51.72;23.20;;;;;;;5.20;78.90;97878.13;5155967;27;20038;-62
2021/11/29 07:25:10;;;;;;;60.13;25.25;;;;;;;5.26;79.03;97886.09;5154708;27;20061;-63
2021/11/29 07:27:36;;;;;;;56.53;24.08;;;;;;;5.29;79.40;97875.91;5153805;27;20062;-63
2021/11/29 07:30:04;;;;;;;59.58;24.88;;;;;;;5.28;79.46;97876.16;5154278;27;20081;-63
2021/11/29 07:32:30;;;;;;;63.97;25.13;;;;;;;5.23;79.64;97871.59;5152285;27;20392;-64
2021/11/29 07:34:57;;;;;;;61.65;25.38;;;;;;;5.25;79.69;97872.16;5154344;27;20095;-62
2021/11/29 07:37:23;;;;;;;63.00;25.90;;;;;;;5.24;79.85;97865.34;5154515;27;20035;-63
2021/11/29 07:39:51;;;;;;;64.47;24.52;;;;;;;5.28;79.37;97866.44;5152584;27;20053;-63
2021/11/29 07:42:17;;;;;;;51.95;23.30;;;;;;;5.29;79.15;97862.75;5153296;27;20049;-62
2021/11/29 07:44:43;;;;;;;53.90;24.65;;;;;;;5.34;79.14;97862.84;5151940;27;20047;-62
2021/11/29 07:47:09;;;;;;;58.63;23.27;;;;;;;5.32;78.95;97845.72;5153125;27;20070;-63
2021/11/29 07:49:35;;;;;;;60.97;24.90;;;;;;;5.37;79.63;97845.81;5150548;27;20058;-63
2021/11/29 07:52:02;;;;;;;61.47;26.42;;;;;;;5.40;79.34;97846.13;5150127;27;20488;-62
2021/11/29 07:54:28;;;;;;;63.28;26.85;;;;;;;5.45;79.58;97840.16;5150012;27;20130;-62
2021/11/29 07:56:54;;;;;;;58.72;25.65;;;;;;;5.43;78.90;97832.50;5132845;27;20045;-62
2021/11/29 07:59:20;;;;;;;59.92;26.25;;;;;;;5.39;79.00;97828.78;5153830;27;20035;-62
2021/11/29 08:01:45;;;;;;;59.90;25.25;;;;;;;5.38;79.88;97832.44;5150454;27;20042;-60
2021/11/29 08:04:11;;;;;;;66.80;26.60;;;;;;;5.41;79.35;97820.63;5153595;27;20407;-62
2021/11/29 08:06:38;;;;;;;63.88;24.85;;;;;;;5.46;79.45;97818.06;5151349;27;20038;-62
2021/11/29 08:09:04;;;;;;;64.13;25.38;;;;;;;5.54;79.49;97809.00;5132325;27;20182;-62
2021/11/29 08:11:30;;;;;;;65.55;25.35;;;;;;;5.53;79.42;97802.94;5129100;27;20571;-61
2021/11/29 08:13:56;;;;;;;59.53;24.50;;;;;;;5.58;79.04;97795.09;5131411;27;20043;-62
2021/11/29 08:16:24;;;;;;;61.80;24.52;;;;;;;5.59;78.90;97788.81;5129226;27;20070;-63
2021/11/29 08:18:50;;;;;;;52.28;22.08;;;;;;;5.57;78.67;97783.00;5093635;27;20636;-62
2021/11/29 08:21:16;;;;;;;52.38;21.88;;;;;;;5.63;78.87;97778.63;5130770;27;20055;-62
2021/11/29 08:23:42;;;;;;;52.55;23.17;;;;;;;5.65;78.76;97781.81;5128327;27;20447;-63
2021/11/29 08:26:07;;;;;;;54.38;22.55;;;;;;;5.67;78.77;97774.44;5129272;27;20080;-62
2021/11/29 08:28:33;;;;;;;52.92;22.50;;;;;;;5.58;79.00;97768.81;5128358;27;20041;-63
2021/11/29 08:31:00;;;;;;;55.97;22.05;;;;;;;5.62;79.36;97769.16;5127194;27;20046;-63
2021/11/29 08:33:26;;;;;;;63.63;23.38;;;;;;;5.65;79.08;97763.41;5129768;27;20190;-64
2021/11/29 08:35:52;;;;;;;55.22;23.20;;;;;;;5.66;79.12;97759.72;5129374;27;20486;-64
2021/11/29 08:38:19;;;;;;;53.45;22.70;;;;;;;5.72;79.08;97753.47;5129584;27;20035;-62
2021/11/29 08:40:49;;;;;;;53.25;22.88;;;;;;;5.69;79.04;97739.00;5130678;27;20050;-62
2021/11/29 08:43:17;;;;;;;52.05;21.80;;;;;;;5.74;79.02;97732.22;5129223;27;20043;-62
2021/11/29 08:45:45;;;;;;;46.92;21.60;;;;;;;5.76;78.90;97733.53;5129746;27;20043;-62
2021/11/29 08:48:12;;;;;;;54.65;22.40;;;;;;;5.77;79.04;97732.50;5128653;27;20130;-64
2021/11/29 08:50:41;;;;;;;53.55;22.58;;;;;;;5.79;79.14;97727.00;5127938;27;20058;-60
2021/11/29 08:53:10;;;;;;;54.70;23.35;;;;;;;5.76;78.94;97715.13;5130062;27;20126;-61
2021/11/29 08:55:36;;;;;;;52.28;22.92;;;;;;;5.79;79.08;97722.53;5127828;27;20416;-60
2021/11/29 08:58:05;;;;;;;55.38;23.20;;;;;;;5.82;79.19;97714.13;5132939;27;20120;-61
2021/11/29 09:00:32;;;;;;;52.90;23.17;;;;;;;5.85;78.55;97715.47;5132909;27;20051;-61
2021/11/29 09:02:59;;;;;;;56.08;22.58;;;;;;;5.84;78.61;97706.00;5130227;27;20050;-62
2021/11/29 09:05:25;;;;;;;51.83;21.40;;;;;;;5.76;78.33;97707.25;5130237;27;20095;-61
2021/11/29 09:07:52;;;;;;;50.35;20.92;;;;;;;5.72;78.79;97703.53;5130748;27;20039;-62
2021/11/29 09:10:19;;;;;;;50.90;21.27;;;;;;;5.75;78.77;97696.97;5127309;27;20122;-62
2021/11/29 09:12:45;;;;;;;53.53;21.77;;;;;;;5.67;78.84;97687.69;5130075;27;20043;-61
2021/11/29 09:15:14;;;;;;;50.80;21.65;;;;;;;5.75;79.09;97696.97;5130596;27;20533;-61
2021/11/29 09:17:40;;;;;;;53.00;21.90;;;;;;;5.73;79.66;97689.34;5130457;27;20142;-59
2021/11/29 09:20:09;;;;;;;51.70;21.20;;;;;;;5.75;79.08;97692.53;5129741;27;20432;-61
2021/11/29 09:22:35;;;;;;;61.20;22.38;;;;;;;5.75;79.58;97692.53;5129113;27;20086;-61
2021/11/29 09:25:01;;;;;;;57.08;24.00;;;;;;;5.78;78.88;97683.34;5130437;27;20082;-60
2021/11/29 09:27:29;;;;;;;55.15;21.98;;;;;;;5.77;78.86;97681.78;5129649;27;20408;-60
2021/11/29 09:29:55;;;;;;;53.80;22.65;;;;;;;5.83;79.01;97678.94;5130050;27;20051;-62
2021/11/29 09:32:20;;;;;;;57.97;23.73;;;;;;;5.85;78.66;97678.66;5110280;27;20166;-62
2021/11/29 09:34:48;;;;;;;54.75;21.42;;;;;;;5.84;79.20;97680.50;5126207;27;20460;-61
2021/11/29 09:37:16;;;;;;;57.15;22.23;;;;;;;5.83;79.30;97686.03;5129467;27;20035;-61
2021/11/29 09:39:42;;;;;;;51.40;21.70;;;;;;;5.80;79.50;97666.28;5129786;27;20164;-61
2021/11/29 09:42:08;;;;;;;55.17;21.52;;;;;;;5.83;79.53;97668.41;5128822;27;20427;-62
2021/11/29 09:44:34;;;;;;;51.00;21.65;;;;;;;5.76;78.88;97645.97;5130487;27;20158;-62
2021/11/29 09:47:00;;;;;;;50.05;21.40;;;;;;;5.93;78.51;97649.34;5128468;27;20043;-61
2021/11/29 09:49:29;;;;;;;50.83;21.52;;;;;;;5.95;78.49;97644.63;5128116;27;20043;-62
2021/11/29 09:51:59;;;;;;;49.65;21.90;;;;;;;6.03;78.78;97646.81;5143573;27;20034;-62
2021/11/29 09:54:25;;;;;;;;;;;;;;;6.04;78.65;97647.59;5149555;27;20049;-61
2021/11/29 09:56:53;;;;;;;58.70;22.02;;;;;;;6.05;78.55;97634.19;5149133;27;19918;-61
2021/11/29 09:59:23;;;;;;;52.15;22.23;;;;;;;6.12;77.87;97631.34;5147443;27;20077;-61
2021/11/29 10:01:53;;;;;;;52.92;20.98;;;;;;;6.20;77.78;97630.09;5132132;27;20070;-62
2021/11/29 10:04:19;;;;;;;50.92;21.60;;;;;;;6.21;78.01;97621.16;5130561;27;20042;-62
2021/11/29 10:06:48;;;;;;;56.80;23.60;;;;;;;6.23;77.73;97624.31;5150477;27;20042;-59
2021/11/29 10:09:33;;;;;;;52.60;21.08;;;;;;;6.22;77.71;97628.78;5148514;27;20087;-61
2021/11/29 10:12:11;;;;;;;48.70;21.45;;;;;;;6.20;77.93;97630.09;5149711;27;20042;-66
2021/11/29 10:14:39;;;;;;;54.50;21.95;;;;;;;6.21;77.80;97627.22;5149945;27;20567;-59
2021/11/29 10:17:05;;;;;;;54.15;21.67;;;;;;;6.20;77.83;97622.97;5147920;27;20118;-61
2021/11/29 10:19:38;;;;;;;48.53;22.67;;;;;;;6.26;78.05;97623.81;5146969;27;20592;-61
2021/11/29 10:22:30;;;;;;;47.90;20.45;;;;;;;6.27;77.67;97612.25;5149494;27;20049;-58
2021/11/29 10:24:56;;;;;;;50.90;20.15;;;;;;;6.27;77.92;97618.31;5148639;27;20507;-61
2021/11/29 10:27:40;;;;;;;48.78;19.55;;;;;;;6.32;77.59;97620.16;5130285;27;20070;-61
2021/11/29 10:30:07;;;;;;;49.15;20.52;;;;;;;6.28;78.14;97619.09;5095298;27;20058;-61
2021/11/29 10:32:36;;;;;;;51.35;21.35;;;;;;;6.24;77.90;97613.56;5148765;27;20064;-61
2021/11/29 10:35:03;;;;;;;46.40;20.83;;;;;;;6.27;78.32;97613.03;5148505;27;20042;-60
2021/11/29 10:37:34;;;;;;;46.15;20.10;;;;;;;6.29;78.04;97610.94;5147794;27;20042;-62
2021/11/29 10:40:00;;;;;;;50.42;21.35;;;;;;;6.31;77.84;97608.84;5148499;27;20058;-62
2021/11/29 10:42:28;;;;;;;47.25;20.83;;;;;;;6.30;78.21;97603.84;5147465;27;20038;-60
2021/11/29 10:44:58;;;;;;;41.60;18.48;;;;;;;6.32;78.03;97599.94;5150113;27;20062;-61
2021/11/29 10:47:25;;;;;;;48.17;20.77;;;;;;;6.32;77.78;97594.66;5106187;27;20047;-61
2021/11/29 10:50:02;;;;;;;44.28;19.30;;;;;;;6.34;77.74;97586.50;5131711;27;20146;-62
2021/11/29 10:52:33;;;;;;;46.45;19.55;;;;;;;6.39;77.47;97585.75;5100957;27;20498;-60
2021/11/29 10:55:00;;;;;;;51.67;22.73;;;;;;;6.36;78.05;97577.31;5127859;27;20047;-61
2021/11/29 10:57:27;;;;;;;49.88;21.92;;;;;;;6.42;77.21;97578.13;5127605;28;20043;-60
2021/11/29 10:59:54;;;;;;;52.08;22.02;;;;;;;6.40;77.86;97576.81;5126619;27;20062;-60
2021/11/29 11:02:32;;;;;;;46.63;21.75;;;;;;;6.42;77.58;97570.25;5127425;28;20047;-62
2021/11/29 11:05:06;;;;;;;47.03;20.38;;;;;;;6.40;78.01;97569.69;5129353;27;20103;-62
2021/11/29 11:07:34;;;;;;;39.17;19.10;;;;;;;6.37;77.50;97563.09;5110170;28;20146;-61
2021/11/29 11:10:02;;;;;;;43.97;20.67;;;;;;;6.37;78.20;97557.06;5127352;28;20039;-60
2021/11/29 11:12:36;;;;;;;40.70;19.15;;;;;;;6.35;78.24;97562.59;5127459;27;20138;-61
2021/11/29 11:15:22;;;;;;;43.20;18.48;;;;;;;6.36;78.20;97551.00;5110811;28;20524;-62
2021/11/29 11:17:53;;;;;;;43.28;19.95;;;;;;;6.38;78.07;97540.19;5122563;27;20096;-61
2021/11/29 11:20:19;;;;;;;44.30;19.20;;;;;;;6.40;78.18;97540.75;5126927;27;20047;-61
2021/11/29 11:22:47;;;;;;;39.92;19.85;;;;;;;6.39;77.87;97519.97;5129188;27;20043;-62
2021/11/29 11:25:19;;;;;;;40.83;18.60;;;;;;;6.37;78.05;97526.25;5127878;28;20515;-59
2021/11/29 11:27:55;;;;;;;46.13;19.27;;;;;;;6.40;78.20;97516.28;5128602;27;20115;-60